Time;durP1;ratioP1;P1;durP2;ratioP2;P2;SDS_P1;SDS_P2;PMS_P1;PMS_P2;Temp;Humidity;BMP_temperature;BMP_pressure;BME280_temperature;BME280_humidity;BME280_pressure;Samples;Min_cycle;Max_cycle;Signal;HPM_P1;HPM_P2
2021/03/23 00:00:51;;;;;;;3.38;1.40;;;9.50;32.40;;;;;;5058222;28;20081;-73
2021/03/23 00:03:28;;;;;;;3.97;1.52;;;9.60;32.10;;;;;;5075714;28;20032;-72
2021/03/23 00:05:55;;;;;;;5.93;1.73;;;9.60;30.90;;;;;;5075407;28;20024;-75
2021/03/23 00:08:24;;;;;;;5.65;1.25;;;9.70;31.20;;;;;;5075429;28;20025;-71
2021/03/23 00:10:50;;;;;;;2.85;1.30;;;9.70;30.30;;;;;;5075629;28;20055;-71
2021/03/23 00:13:16;;;;;;;2.22;1.17;;;9.80;30.90;;;;;;5075271;28;20469;-71
2021/03/23 00:15:43;;;;;;;6.00;1.83;;;9.80;30.50;;;;;;5057096;28;20029;-69
2021/03/23 00:18:10;;;;;;;2.70;1.50;;;9.90;30.80;;;;;;5075189;28;20571;-73
2021/03/23 00:20:37;;;;;;;5.22;1.60;;;9.80;30.60;;;;;;5075189;28;20056;-73
2021/03/23 00:23:03;;;;;;;5.45;1.45;;;9.80;30.60;;;;;;5075613;28;20369;-69
2021/03/23 00:25:29;;;;;;;3.33;1.40;;;9.90;30.90;;;;;;5074971;28;20035;-71
2021/03/23 00:27:55;;;;;;;2.83;1.35;;;9.80;30.40;;;;;;5075115;28;20017;-73
2021/03/23 00:30:21;;;;;;;4.22;1.40;;;9.90;30.60;;;;;;5075168;28;20082;-76
2021/03/23 00:32:46;;;;;;;5.55;1.55;;;9.90;30.00;;;;;;5075139;28;20055;-73
2021/03/23 00:35:12;;;;;;;4.30;1.20;;;9.90;30.40;;;;;;5074819;28;20469;-74
2021/03/23 00:37:40;;;;;;;3.33;1.20;;;9.80;30.20;;;;;;5075069;28;20536;-70
2021/03/23 00:40:09;;;;;;;2.45;1.13;;;9.80;30.40;;;;;;5074939;28;20405;-76
2021/03/23 00:42:35;;;;;;;3.63;1.30;;;9.80;30.10;;;;;;5074804;28;20021;-71
2021/03/23 00:45:03;;;;;;;5.95;1.30;;;9.80;30.40;;;;;;5074652;28;20082;-77
2021/03/23 00:47:29;;;;;;;3.72;1.20;;;9.80;30.70;;;;;;5056751;28;20477;-73
2021/03/23 00:49:54;;;;;;;3.63;1.25;;;9.90;30.60;;;;;;5074626;28;20032;-73
2021/03/23 00:52:20;;;;;;;2.13;1.13;;;9.80;30.50;;;;;;5074620;28;20070;-73
2021/03/23 00:54:46;;;;;;;3.88;1.27;;;9.80;30.80;;;;;;5074537;28;20497;-75
2021/03/23 00:57:11;;;;;;;3.25;1.40;;;9.80;30.80;;;;;;5074607;28;20021;-73
2021/03/23 00:59:37;;;;;;;2.83;1.30;;;9.70;31.30;;;;;;5074716;28;20031;-69
2021/03/23 01:02:03;;;;;;;2.97;1.33;;;9.70;31.70;;;;;;5074240;28;20020;-78
2021/03/23 01:04:29;;;;;;;3.00;1.30;;;9.70;31.90;;;;;;5074172;28;20032;-70
2021/03/23 01:06:55;;;;;;;3.47;1.52;;;9.60;32.00;;;;;;5074171;28;20066;-70
2021/03/23 01:09:21;;;;;;;5.57;1.42;;;9.50;31.90;;;;;;5074118;28;20488;-69
2021/03/23 01:11:46;;;;;;;3.28;1.50;;;9.50;32.40;;;;;;5073814;28;20377;-70
2021/03/23 01:14:12;;;;;;;3.05;1.55;;;9.40;32.40;;;;;;5073952;28;20173;-71
2021/03/23 01:16:38;;;;;;;3.95;1.58;;;9.40;32.60;;;;;;5073994;28;20513;-78
2021/03/23 01:19:03;;;;;;;3.30;1.30;;;9.30;32.20;;;;;;5073964;28;20123;-79
2021/03/23 01:21:29;;;;;;;3.70;1.75;;;9.30;32.30;;;;;;5073980;28;20474;-70
2021/03/23 01:23:56;;;;;;;5.57;1.45;;;9.20;32.00;;;;;;5073924;28;20051;-73
2021/03/23 01:26:21;;;;;;;3.60;1.30;;;9.20;32.00;;;;;;5073677;28;20116;-74
2021/03/23 01:28:47;;;;;;;2.78;1.25;;;9.20;31.40;;;;;;5074083;28;20475;-71
2021/03/23 01:31:14;;;;;;;2.40;1.10;;;9.20;31.10;;;;;;5073842;28;20435;-72
2021/03/23 01:33:39;;;;;;;4.82;1.70;;;9.20;30.90;;;;;;5073563;28;20039;-73
2021/03/23 01:36:06;;;;;;;2.83;1.27;;;9.20;30.80;;;;;;5073564;28;20025;-70
2021/03/23 01:38:31;;;;;;;2.90;1.42;;;9.10;30.20;;;;;;5073657;28;20029;-72
2021/03/23 01:40:57;;;;;;;5.70;1.50;;;9.10;30.20;;;;;;5073851;28;20031;-72
2021/03/23 01:43:32;;;;;;;3.40;1.33;;;9.10;30.10;;;;;;5073625;28;20074;-72
2021/03/23 01:45:59;;;;;;;4.28;1.63;;;9.10;30.20;;;;;;5073180;28;20082;-71
2021/03/23 01:48:34;;;;;;;4.95;1.45;;;9.10;30.70;;;;;;5073643;28;20031;-72
2021/03/23 01:51:04;;;;;;;5.65;1.80;;;8.90;31.30;;;;;;5073436;28;20060;-70
2021/03/23 01:53:41;;;;;;;5.30;1.77;;;8.80;31.70;;;;;;5073654;28;20474;-72
2021/03/23 01:56:08;;;;;;;3.40;1.30;;;8.70;32.80;;;;;;5073583;28;20076;-74
2021/03/23 01:58:41;;;;;;;5.65;1.88;;;8.70;33.60;;;;;;5073654;28;20530;-70
2021/03/23 02:01:10;;;;;;;6.97;1.80;;;8.60;33.30;;;;;;5073447;28;20028;-69
2021/03/23 02:03:37;;;;;;;5.30;1.60;;;8.60;33.80;;;;;;5055339;28;20504;-70
2021/03/23 02:06:04;;;;;;;5.65;1.70;;;8.50;34.10;;;;;;5073276;28;20056;-70
2021/03/23 02:08:30;;;;;;;4.30;1.75;;;8.50;34.30;;;;;;5073119;28;20470;-71
2021/03/23 02:10:58;;;;;;;4.63;1.65;;;8.50;34.90;;;;;;5055306;28;20119;-71
2021/03/23 02:13:25;;;;;;;5.43;2.15;;;8.40;34.80;;;;;;5055495;28;20412;-71
2021/03/23 02:15:51;;;;;;;5.57;1.83;;;8.40;35.00;;;;;;5074036;28;20032;-69
2021/03/23 02:18:26;;;;;;;5.40;1.95;;;8.40;35.30;;;;;;5073509;28;20145;-68
2021/03/23 02:21:02;;;;;;;5.32;1.80;;;8.40;35.90;;;;;;5073363;28;20036;-72
2021/03/23 02:23:41;;;;;;;3.97;1.52;;;8.40;36.10;;;;;;5073555;28;20024;-70
2021/03/23 02:26:14;;;;;;;4.22;1.70;;;8.40;35.60;;;;;;5073116;28;20334;-70
2021/03/23 02:28:51;;;;;;;3.35;1.50;;;8.40;35.60;;;;;;5073243;28;20401;-71
2021/03/23 02:31:23;;;;;;;3.50;1.60;;;8.30;35.80;;;;;;5073128;28;20454;-71
2021/03/23 02:33:49;;;;;;;4.55;1.73;;;8.30;37.00;;;;;;5073069;28;20029;-70
2021/03/23 02:36:15;;;;;;;3.22;1.65;;;8.30;35.80;;;;;;5072906;28;20250;-76
2021/03/23 02:38:41;;;;;;;2.97;1.50;;;8.30;35.90;;;;;;5072960;28;20100;-69
2021/03/23 02:41:07;;;;;;;5.35;1.65;;;8.20;35.90;;;;;;5073060;28;20028;-70
2021/03/23 02:43:33;;;;;;;3.78;1.60;;;8.20;35.80;;;;;;5054885;28;20035;-70
2021/03/23 02:45:58;;;;;;;4.63;1.48;;;8.20;35.90;;;;;;5054896;28;20029;-70
2021/03/23 02:48:24;;;;;;;2.67;1.27;;;8.30;35.80;;;;;;5054231;28;20029;-69
2021/03/23 02:50:51;;;;;;;5.03;1.60;;;8.20;35.60;;;;;;5073008;28;20075;-69
2021/03/23 02:53:17;;;;;;;4.22;1.85;;;8.20;35.60;;;;;;5072661;28;20039;-69
2021/03/23 02:55:45;;;;;;;6.90;1.63;;;8.20;35.60;;;;;;5073650;28;20033;-70
2021/03/23 02:58:13;;;;;;;3.05;1.35;;;8.20;35.40;;;;;;5076755;28;20043;-70
2021/03/23 03:00:39;;;;;;;4.28;1.25;;;8.20;36.30;;;;;;5076789;28;20093;-72
2021/03/23 03:03:05;;;;;;;3.95;1.42;;;8.20;35.10;;;;;;5076638;28;20028;-73
2021/03/23 03:05:31;;;;;;;4.65;1.70;;;8.20;35.10;;;;;;5076544;28;20097;-70
2021/03/23 03:07:57;;;;;;;4.88;1.88;;;8.20;35.10;;;;;;5076623;28;20024;-69
2021/03/23 03:10:22;;;;;;;2.83;1.23;;;8.20;35.30;;;;;;5076408;28;20048;-69
2021/03/23 03:12:48;;;;;;;4.28;1.50;;;8.20;35.00;;;;;;5076861;28;20016;-71
2021/03/23 03:15:14;;;;;;;4.95;1.30;;;8.20;35.10;;;;;;5076187;28;20090;-73
2021/03/23 03:17:40;;;;;;;3.78;1.48;;;8.30;35.00;;;;;;5076323;28;20029;-70
2021/03/23 03:20:08;;;;;;;6.18;1.40;;;8.20;34.90;;;;;;5076290;28;20063;-73
2021/03/23 03:22:34;;;;;;;5.90;1.58;;;8.20;34.90;;;;;;5076328;28;20052;-70
2021/03/23 03:25:00;;;;;;;3.50;1.35;;;8.30;34.90;;;;;;5076332;28;20051;-71
2021/03/23 03:27:25;;;;;;;3.08;1.30;;;8.20;34.90;;;;;;5076291;28;20025;-72
2021/03/23 03:29:51;;;;;;;4.00;1.40;;;8.30;34.90;;;;;;5076340;28;20059;-70
2021/03/23 03:32:17;;;;;;;3.88;1.55;;;8.40;35.10;;;;;;5076148;28;20129;-70
2021/03/23 03:34:43;;;;;;;3.60;1.15;;;8.40;34.80;;;;;;5076235;28;20492;-70
2021/03/23 03:37:09;;;;;;;3.10;1.48;;;8.40;34.80;;;;;;5075739;28;20027;-70
2021/03/23 03:39:34;;;;;;;2.38;1.17;;;8.40;34.90;;;;;;5076233;28;20031;-71
2021/03/23 03:42:00;;;;;;;2.72;1.33;;;8.30;34.70;;;;;;5075823;28;20473;-72
2021/03/23 03:44:26;;;;;;;4.68;1.80;;;8.30;35.00;;;;;;5076113;28;20104;-71
2021/03/23 03:46:52;;;;;;;3.80;1.33;;;8.30;35.00;;;;;;5075894;28;20031;-72
2021/03/23 03:49:18;;;;;;;3.83;1.25;;;8.30;35.00;;;;;;5076196;28;20035;-71
2021/03/23 03:51:43;;;;;;;3.80;1.20;;;8.20;35.10;;;;;;5075832;28;20027;-71
2021/03/23 03:54:09;;;;;;;4.15;1.48;;;8.20;34.80;;;;;;5075873;28;20036;-71
2021/03/23 03:56:35;;;;;;;2.35;1.10;;;8.20;34.90;;;;;;5075959;28;20025;-71
2021/03/23 03:59:00;;;;;;;4.45;1.33;;;8.20;35.00;;;;;;5057581;28;20524;-73
2021/03/23 04:01:26;;;;;;;3.70;1.48;;;8.20;35.00;;;;;;5075835;28;20027;-69
2021/03/23 04:03:52;;;;;;;5.65;1.60;;;8.20;35.10;;;;;;5076053;28;20024;-71
2021/03/23 04:06:18;;;;;;;5.22;1.45;;;8.20;35.20;;;;;;5057974;28;20387;-70
2021/03/23 04:08:43;;;;;;;3.65;1.30;;;8.20;35.00;;;;;;5074870;28;20021;-76
2021/03/23 04:11:11;;;;;;;2.63;1.08;;;8.20;35.00;;;;;;5075574;28;20532;-75
2021/03/23 04:13:37;;;;;;;2.80;1.38;;;8.20;35.00;;;;;;5075415;28;20035;-73
2021/03/23 04:16:03;;;;;;;5.22;1.40;;;8.30;35.20;;;;;;5075119;28;20028;-70
2021/03/23 04:18:29;;;;;;;4.40;1.20;;;8.20;35.10;;;;;;5075526;28;20362;-72
2021/03/23 04:20:58;;;;;;;3.63;1.23;;;8.20;35.20;;;;;;5075711;28;20044;-76
2021/03/23 04:23:31;;;;;;;5.68;1.60;;;8.20;35.10;;;;;;5076301;28;20032;-75
2021/03/23 04:25:58;;;;;;;3.95;1.25;;;8.20;35.20;;;;;;5078572;28;20062;-71
2021/03/23 04:28:24;;;;;;;2.33;1.25;;;8.20;35.30;;;;;;5077452;28;20029;-69
2021/03/23 04:30:50;;;;;;;4.97;1.25;;;8.20;35.50;;;;;;5076256;28;20079;-70
2021/03/23 04:33:19;;;;;;;7.03;1.38;;;8.20;35.60;;;;;;5076112;28;20032;-69
2021/03/23 04:36:06;;;;;;;4.90;1.65;;;8.30;35.70;;;;;;5075014;28;20362;-75
2021/03/23 04:38:37;;;;;;;3.00;1.30;;;8.30;35.90;;;;;;5057023;28;20060;-76
2021/03/23 04:41:07;;;;;;;3.63;1.52;;;8.30;35.90;;;;;;5075041;28;20070;-76
2021/03/23 04:43:36;;;;;;;5.40;1.42;;;8.30;35.90;;;;;;5074938;28;20020;-76
2021/03/23 04:46:02;;;;;;;5.60;1.50;;;8.30;35.90;;;;;;5074975;28;20105;-74
2021/03/23 04:48:28;;;;;;;6.10;1.70;;;8.30;36.10;;;;;;5074967;28;20024;-77
2021/03/23 04:50:54;;;;;;;4.32;1.40;;;8.30;36.00;;;;;;5074585;28;20074;-73
2021/03/23 04:53:23;;;;;;;4.95;1.80;;;8.20;35.90;;;;;;5074732;28;20025;-77
2021/03/23 04:55:49;;;;;;;4.18;1.60;;;8.20;36.00;;;;;;5074848;28;20445;-79
2021/03/23 04:58:15;;;;;;;2.92;1.40;;;8.20;36.00;;;;;;5074551;28;20048;-70
2021/03/23 05:00:41;;;;;;;4.30;1.50;;;8.10;36.20;;;;;;5074442;28;20020;-73
2021/03/23 05:03:19;;;;;;;4.72;1.73;;;8.10;36.30;;;;;;5074532;28;20050;-74
2021/03/23 05:05:45;;;;;;;7.03;1.67;;;8.00;37.50;;;;;;5074146;28;20048;-71
2021/03/23 05:08:11;;;;;;;5.82;1.50;;;8.00;36.60;;;;;;5074118;28;20031;-71
2021/03/23 05:10:38;;;;;;;4.80;1.80;;;7.90;36.70;;;;;;5074340;28;20458;-70
2021/03/23 05:13:04;;;;;;;3.55;1.42;;;7.90;36.70;;;;;;5074637;28;20058;-79
2021/03/23 05:15:31;;;;;;;5.80;1.70;;;7.90;37.00;;;;;;5074818;28;20028;-74
2021/03/23 05:17:56;;;;;;;5.90;1.60;;;7.90;36.90;;;;;;5074490;28;20031;-69
2021/03/23 05:20:23;;;;;;;5.72;1.48;;;7.90;37.40;;;;;;5072872;28;20107;-74
2021/03/23 05:22:48;;;;;;;4.95;1.80;;;7.90;37.20;;;;;;5074066;28;20024;-69
2021/03/23 05:25:15;;;;;;;3.38;1.35;;;7.90;37.40;;;;;;5074372;28;20028;-73
2021/03/23 05:27:41;;;;;;;9.77;1.73;;;7.80;38.10;;;;;;5073920;28;20066;-69
2021/03/23 05:30:08;;;;;;;3.38;1.40;;;7.80;37.80;;;;;;5073930;28;20024;-71
2021/03/23 05:32:34;;;;;;;5.03;1.70;;;7.90;37.80;;;;;;5073797;28;20052;-70
2021/03/23 05:35:00;;;;;;;5.40;1.42;;;7.90;37.40;;;;;;5055740;28;20071;-71
2021/03/23 05:37:25;;;;;;;6.65;1.70;;;7.90;37.30;;;;;;5055755;28;20373;-71
2021/03/23 05:39:51;;;;;;;5.10;1.40;;;7.90;37.30;;;;;;5073561;28;20474;-70
2021/03/23 05:42:28;;;;;;;7.95;1.63;;;7.90;38.00;;;;;;5073538;28;20104;-69
2021/03/23 05:44:54;;;;;;;4.78;1.42;;;7.90;37.00;;;;;;5073912;28;20029;-71
2021/03/23 05:47:27;;;;;;;5.22;1.40;;;7.90;37.00;;;;;;5055527;28;20078;-72
2021/03/23 05:50:10;;;;;;;5.70;1.58;;;7.90;36.90;;;;;;5056257;28;20381;-70
2021/03/23 05:52:41;;;;;;;3.75;1.50;;;8.00;37.20;;;;;;5073355;28;20024;-71
2021/03/23 05:55:30;;;;;;;5.65;1.60;;;8.00;38.00;;;;;;5073429;28;20055;-70
2021/03/23 05:57:57;;;;;;;4.70;1.60;;;8.10;38.00;;;;;;5061073;28;20032;-70
2021/03/23 06:00:28;;;;;;;3.55;1.40;;;8.10;37.10;;;;;;5073373;28;20046;-70
2021/03/23 06:03:18;;;;;;;4.43;1.58;;;8.10;37.60;;;;;;5073375;28;20090;-69
2021/03/23 06:05:56;;;;;;;6.35;1.50;;;8.20;37.50;;;;;;5073090;28;20107;-71
2021/03/23 06:08:30;;;;;;;5.30;1.40;;;8.30;37.30;;;;;;5073452;28;20024;-72
2021/03/23 06:11:17;;;;;;;3.53;1.33;;;8.40;37.00;;;;;;5073653;28;20103;-73
2021/03/23 06:13:46;;;;;;;7.13;1.92;;;8.60;36.90;;;;;;5055206;28;20428;-74
2021/03/23 06:16:48;;;;;;;5.60;1.88;;;8.80;35.70;;;;;;5073011;28;20028;-74
2021/03/23 06:19:26;;;;;;;4.63;1.63;;;8.90;36.20;;;;;;5001433;28;20048;-77
2021/03/23 06:22:02;;;;;;;6.25;1.60;;;9.00;35.70;;;;;;5072787;28;20020;-77
2021/03/23 06:24:54;;;;;;;4.70;1.80;;;9.20;35.20;;;;;;5072998;28;20025;-72
2021/03/23 06:27:44;;;;;;;9.32;1.88;;;9.30;35.50;;;;;;5073149;28;20029;-69
2021/03/23 06:30:35;;;;;;;5.90;1.60;;;9.40;35.50;;;;;;5054911;28;20029;-71
2021/03/23 06:33:00;;;;;;;7.65;1.90;;;9.40;35.30;;;;;;5077274;28;20103;-72
2021/03/23 06:35:34;;;;;;;3.95;1.60;;;9.50;35.10;;;;;;5077193;28;20499;-79
2021/03/23 06:38:02;;;;;;;3.17;1.65;;;9.50;35.10;;;;;;5059396;28;20051;-73
2021/03/23 06:40:33;;;;;;;4.20;1.80;;;9.60;34.90;;;;;;5077287;28;20386;-72
2021/03/23 06:43:29;;;;;;;11.27;1.60;;;9.70;34.70;;;;;;5077318;28;20040;-71
2021/03/23 06:46:32;;;;;;;4.13;1.98;;;9.70;34.50;;;;;;5069074;28;20150;-78
2021/03/23 06:49:03;;;;;;;4.95;1.55;;;9.60;34.40;;;;;;5077044;28;20019;-70
2021/03/23 06:51:29;;;;;;;5.35;1.70;;;9.70;34.40;;;;;;5077190;28;20092;-76
2021/03/23 06:54:15;;;;;;;6.00;2.10;;;9.80;34.50;;;;;;5076908;28;20120;-75
2021/03/23 06:56:42;;;;;;;5.55;1.85;;;9.80;34.10;;;;;;5076698;28;20068;-71
2021/03/23 06:59:18;;;;;;;3.60;1.85;;;9.90;34.30;;;;;;5077078;28;20032;-72
2021/03/23 07:01:49;;;;;;;4.95;1.63;;;9.90;33.60;;;;;;5076603;28;20458;-75
2021/03/23 07:04:39;;;;;;;8.82;1.65;;;9.90;34.00;;;;;;5076693;28;20087;-71
2021/03/23 07:07:17;;;;;;;5.43;1.83;;;10.00;33.00;;;;;;5076527;28;20389;-76
2021/03/23 07:09:56;;;;;;;15.02;2.97;;;10.10;32.70;;;;;;5076219;28;20031;-79
2021/03/23 07:12:44;;;;;;;6.55;2.00;;;10.10;32.60;;;;;;5078852;28;20527;-71
2021/03/23 07:15:10;;;;;;;7.28;2.80;;;10.20;32.40;;;;;;5076199;28;20413;-73
2021/03/23 07:17:45;;;;;;;6.05;1.83;;;10.20;32.50;;;;;;5075866;28;20032;-71
2021/03/23 07:20:34;;;;;;;11.82;1.83;;;10.30;32.20;;;;;;5075905;28;20048;-75
2021/03/23 07:23:28;;;;;;;7.88;2.22;;;10.30;32.20;;;;;;5063794;28;20033;-71
2021/03/23 07:25:56;;;;;;;9.38;2.13;;;10.40;32.20;;;;;;5068437;28;20371;-73
2021/03/23 07:28:31;;;;;;;8.55;1.92;;;10.50;32.50;;;;;;5075848;28;20025;-72
2021/03/23 07:31:28;;;;;;;6.60;1.90;;;10.50;31.50;;;;;;5075937;28;20347;-71
2021/03/23 07:34:15;;;;;;;6.25;2.20;;;10.50;31.20;;;;;;5075942;28;20098;-73
2021/03/23 07:36:46;;;;;;;3.97;1.65;;;10.50;31.70;;;;;;5075715;28;20035;-70
2021/03/23 07:39:34;;;;;;;6.18;2.08;;;10.50;31.10;;;;;;5075766;28;20017;-79
2021/03/23 07:42:33;;;;;;;6.43;1.90;;;10.50;31.10;;;;;;5074940;28;20028;-72
2021/03/23 07:45:07;;;;;;;6.65;1.95;;;10.50;31.00;;;;;;5075597;28;20150;-71
2021/03/23 07:47:33;;;;;;;12.55;2.63;;;10.60;31.10;;;;;;5075522;28;20056;-70
2021/03/23 07:50:12;;;;;;;9.73;2.22;;;10.70;31.50;;;;;;5075776;28;20125;-72
2021/03/23 07:53:04;;;;;;;7.22;2.00;;;10.80;31.10;;;;;;5075068;28;20027;-70
2021/03/23 07:55:32;;;;;;;6.75;1.83;;;10.90;30.00;;;;;;5075243;28;20508;-71
2021/03/23 07:58:16;;;;;;;7.68;2.10;;;11.00;30.90;;;;;;5075078;28;20028;-71
2021/03/23 08:00:44;;;;;;;;;;;11.00;29.70;;;;;;5075674;28;20021;-70
2021/03/23 08:03:52;;;;;;;6.43;1.80;;;11.00;28.80;;;;;;5075474;28;19961;-72
2021/03/23 08:06:23;;;;;;;6.22;2.33;;;11.00;28.00;;;;;;5074766;28;20021;-76
2021/03/23 08:08:52;;;;;;;5.90;1.85;;;10.90;28.60;;;;;;5075062;28;20035;-73
2021/03/23 08:11:27;;;;;;;8.68;2.88;;;10.90;28.80;;;;;;5075290;28;20047;-74
2021/03/23 08:14:23;;;;;;;12.07;2.53;;;11.00;27.50;;;;;;5076639;28;20040;-77
2021/03/23 08:17:04;;;;;;;5.57;2.75;;;11.00;28.20;;;;;;5077441;28;20016;-78
2021/03/23 08:19:35;;;;;;;7.60;2.30;;;11.10;28.10;;;;;;5075840;28;20056;-73
2021/03/23 08:22:20;;;;;;;7.78;2.70;;;11.10;28.90;;;;;;5074941;28;20032;-70
2021/03/23 08:25:11;;;;;;;8.85;2.63;;;11.10;28.60;;;;;;5075024;28;20016;-72
2021/03/23 08:28:12;;;;;;;6.57;2.10;;;11.20;27.10;;;;;;5056775;28;20485;-72
2021/03/23 08:30:55;;;;;;;12.93;2.40;;;11.20;26.00;;;;;;5074884;28;20052;-70
2021/03/23 08:33:42;;;;;;;7.20;2.63;;;11.30;27.20;;;;;;5075177;28;20040;-74
2021/03/23 08:36:45;;;;;;;8.20;2.45;;;11.40;26.00;;;;;;5074835;28;20469;-73
2021/03/23 08:39:13;;;;;;;9.18;2.40;;;11.50;26.10;;;;;;5074730;28;20028;-74
2021/03/23 08:42:11;;;;;;;6.38;2.42;;;11.50;26.20;;;;;;5074486;28;20119;-73
2021/03/23 08:44:50;;;;;;;7.25;2.13;;;11.50;24.70;;;;;;5058873;28;20037;-73
2021/03/23 08:47:41;;;;;;;5.80;2.40;;;11.50;25.20;;;;;;5074522;28;20129;-72
2021/03/23 08:50:16;;;;;;;9.63;2.33;;;11.50;25.20;;;;;;5074642;28;20031;-71
2021/03/23 08:52:45;;;;;;;4.88;2.22;;;11.50;26.00;;;;;;5074351;28;20318;-76
2021/03/23 08:55:32;;;;;;;9.40;2.63;;;11.50;25.80;;;;;;5073838;28;20112;-78
2021/03/23 08:58:01;;;;;;;6.03;2.17;;;11.50;25.20;;;;;;5074423;28;20358;-76
2021/03/23 09:00:40;;;;;;;8.52;3.90;;;11.50;25.40;;;;;;5056069;28;20033;-76
2021/03/23 09:03:09;;;;;;;6.18;2.30;;;11.50;25.80;;;;;;5074708;28;20024;-78
2021/03/23 09:05:53;;;;;;;5.78;2.40;;;11.60;25.80;;;;;;5074163;28;20033;-75
2021/03/23 09:08:21;;;;;;;6.88;2.55;;;11.70;25.00;;;;;;5074508;28;20020;-77
2021/03/23 09:11:01;;;;;;;5.90;2.17;;;11.80;26.10;;;;;;5074094;28;20501;-75
2021/03/23 09:13:33;;;;;;;6.10;2.53;;;11.80;24.70;;;;;;5073715;28;20024;-77
2021/03/23 09:16:01;;;;;;;7.15;3.00;;;11.70;25.50;;;;;;5073683;28;20454;-78
2021/03/23 09:18:30;;;;;;;8.30;2.55;;;11.70;25.30;;;;;;5073652;28;20104;-75
2021/03/23 09:21:10;;;;;;;5.43;2.60;;;11.70;25.60;;;;;;5074228;28;20044;-78
2021/03/23 09:23:42;;;;;;;9.02;2.95;;;11.80;24.40;;;;;;5074207;28;20169;-79
2021/03/23 09:26:39;;;;;;;6.13;2.47;;;11.70;25.30;;;;;;5075383;28;20036;-77
2021/03/23 09:29:35;;;;;;;8.27;2.40;;;11.80;24.40;;;;;;5073734;28;20090;-72
2021/03/23 09:32:12;;;;;;;6.38;2.47;;;11.80;24.00;;;;;;5073754;28;20107;-73
2021/03/23 09:35:10;;;;;;;10.40;3.00;;;11.80;24.00;;;;;;5073658;28;20037;-77
2021/03/23 09:38:13;;;;;;;6.05;2.20;;;11.90;24.00;;;;;;5073631;28;20060;-79
2021/03/23 09:40:50;;;;;;;5.55;2.40;;;11.90;24.30;;;;;;5073838;28;20028;-77
2021/03/23 09:43:22;;;;;;;6.07;2.55;;;11.90;25.10;;;;;;5055445;28;20024;-76
2021/03/23 09:45:48;;;;;;;10.50;3.17;;;12.00;25.00;;;;;;5073091;28;20491;-73
2021/03/23 09:48:13;;;;;;;8.98;2.70;;;12.10;25.30;;;;;;5073419;28;20102;-78
2021/03/23 09:50:51;;;;;;;6.20;2.38;;;12.10;25.30;;;;;;5073560;28;20032;-76
2021/03/23 09:53:28;;;;;;;6.27;2.43;;;12.10;24.70;;;;;;5072997;28;20042;-73
2021/03/23 09:56:02;;;;;;;9.43;2.60;;;12.20;24.90;;;;;;5073277;28;20036;-75
2021/03/23 09:58:28;;;;;;;8.70;2.58;;;12.20;24.90;;;;;;5073367;28;20473;-71
2021/03/23 10:01:12;;;;;;;4.68;2.00;;;12.30;24.80;;;;;;5073271;28;20021;-73
2021/03/23 10:03:38;;;;;;;5.50;2.45;;;12.30;23.70;;;;;;5054981;28;20393;-73
2021/03/23 10:06:10;;;;;;;6.80;2.70;;;12.30;24.80;;;;;;5072489;28;20028;-73
2021/03/23 10:08:36;;;;;;;7.75;2.55;;;12.30;24.70;;;;;;5073658;28;20108;-77
2021/03/23 10:11:14;;;;;;;6.10;2.10;;;12.40;24.70;;;;;;5073305;28;20028;-73
2021/03/23 10:14:00;;;;;;;7.18;2.83;;;12.40;24.90;;;;;;5072978;28;20452;-74
2021/03/23 10:16:33;;;;;;;10.77;2.80;;;12.50;24.80;;;;;;5054937;28;20032;-74
2021/03/23 10:19:07;;;;;;;7.83;2.17;;;12.50;23.90;;;;;;5055016;28;20040;-72
2021/03/23 10:21:35;;;;;;;6.70;2.60;;;12.60;24.90;;;;;;5072953;28;20025;-74
2021/03/23 10:24:04;;;;;;;7.75;2.53;;;12.60;25.20;;;;;;5073146;28;20120;-73
2021/03/23 10:26:45;;;;;;;6.55;2.50;;;12.70;24.90;;;;;;5072743;28;20037;-73
2021/03/23 10:29:30;;;;;;;7.40;2.60;;;12.70;24.90;;;;;;5072902;28;20566;-71
2021/03/23 10:31:58;;;;;;;6.40;2.40;;;12.80;23.80;;;;;;5072651;28;20353;-71
2021/03/23 10:34:31;;;;;;;6.13;2.67;;;12.90;25.00;;;;;;5054854;28;20385;-71
2021/03/23 10:37:08;;;;;;;8.65;2.60;;;12.90;23.70;;;;;;5054768;28;20106;-73
2021/03/23 10:39:39;;;;;;;7.45;2.50;;;13.00;23.80;;;;;;5072760;28;20056;-71
2021/03/23 10:42:17;;;;;;;8.88;2.83;;;13.00;24.40;;;;;;5072758;28;20095;-75
2021/03/23 10:44:43;;;;;;;7.25;2.45;;;13.00;23.40;;;;;;5055099;28;20048;-72
2021/03/23 10:47:16;;;;;;;11.95;2.80;;;13.10;24.40;;;;;;5073392;28;20024;-71
2021/03/23 10:49:41;;;;;;;6.95;2.55;;;13.10;24.20;;;;;;5072948;28;20056;-73
2021/03/23 10:52:29;;;;;;;5.43;2.45;;;13.10;23.80;;;;;;5072724;28;20048;-72
2021/03/23 10:55:33;;;;;;;7.30;2.55;;;13.00;23.80;;;;;;5054698;28;20062;-72
2021/03/23 10:58:20;;;;;;;5.90;2.30;;;13.10;24.30;;;;;;4991750;28;20074;-74
2021/03/23 11:00:51;;;;;;;8.18;2.75;;;13.20;23.40;;;;;;5068804;28;20041;-70
2021/03/23 11:03:31;;;;;;;5.70;2.60;;;13.30;24.50;;;;;;5072753;28;20031;-74
2021/03/23 11:05:57;;;;;;;7.38;2.45;;;13.40;23.10;;;;;;5054893;28;20378;-74
2021/03/23 11:08:43;;;;;;;8.77;2.88;;;13.40;24.00;;;;;;5072674;28;20056;-73
2021/03/23 11:11:09;;;;;;;6.50;2.63;;;13.40;23.80;;;;;;5072445;28;20067;-71
2021/03/23 11:13:34;;;;;;;7.18;2.42;;;13.60;24.30;;;;;;5072853;28;20021;-73
2021/03/23 11:16:03;;;;;;;5.88;2.20;;;13.60;23.70;;;;;;5054423;28;20020;-73
2021/03/23 11:18:31;;;;;;;11.02;2.50;;;13.60;23.20;;;;;;5075920;28;20021;-73
2021/03/23 11:21:00;;;;;;;5.00;2.03;;;13.60;23.20;;;;;;5076024;28;20029;-73
2021/03/23 11:23:54;;;;;;;8.95;2.35;;;13.60;23.00;;;;;;5076128;28;20036;-72
2021/03/23 11:26:23;;;;;;;4.78;1.65;;;13.60;22.80;;;;;;5075273;28;20485;-74
2021/03/23 11:28:53;;;;;;;6.13;2.40;;;13.50;23.20;;;;;;5076247;28;20043;-74
2021/03/23 11:31:19;;;;;;;6.32;2.10;;;13.50;23.00;;;;;;5075984;28;20466;-72
2021/03/23 11:33:45;;;;;;;4.45;2.17;;;13.60;23.50;;;;;;5057790;28;20036;-74
2021/03/23 11:36:11;;;;;;;9.13;2.25;;;13.60;23.50;;;;;;5075961;28;20411;-74
2021/03/23 11:38:38;;;;;;;7.68;2.40;;;13.60;22.80;;;;;;5075639;28;20028;-73
2021/03/23 11:41:06;;;;;;;8.00;2.50;;;13.70;23.00;;;;;;5075998;28;20025;-75
2021/03/23 11:43:44;;;;;;;7.50;2.47;;;13.70;22.20;;;;;;5075857;28;20028;-75
2021/03/23 11:46:42;;;;;;;8.70;2.22;;;13.80;22.70;;;;;;5075861;28;20499;-76
2021/03/23 11:49:15;;;;;;;7.80;2.20;;;14.00;22.80;;;;;;5075119;28;20086;-75
2021/03/23 11:51:47;;;;;;;6.05;2.28;;;14.00;22.70;;;;;;5075555;28;20027;-75
2021/03/23 11:54:14;;;;;;;5.47;2.03;;;14.10;22.60;;;;;;5075773;28;20484;-75
2021/03/23 11:56:40;;;;;;;5.55;2.05;;;14.20;21.70;;;;;;5056920;28;20040;-76
2021/03/23 11:59:07;;;;;;;4.53;2.00;;;14.10;21.70;;;;;;5075541;28;20020;-74
2021/03/23 12:01:33;;;;;;;4.75;2.15;;;14.10;21.80;;;;;;5075157;28;20024;-75
2021/03/23 12:04:00;;;;;;;6.47;2.00;;;14.10;22.00;;;;;;5075742;28;20086;-73
2021/03/23 12:06:36;;;;;;;4.75;2.10;;;14.20;22.30;;;;;;5075272;28;20051;-73
2021/03/23 12:09:13;;;;;;;5.53;2.50;;;14.20;22.80;;;;;;5075459;28;20059;-74
2021/03/23 12:11:53;;;;;;;6.35;2.20;;;14.30;22.10;;;;;;5075305;28;20134;-76
2021/03/23 12:14:26;;;;;;;7.07;2.17;;;14.40;22.30;;;;;;5075215;28;20044;-75
2021/03/23 12:17:03;;;;;;;5.07;2.28;;;14.50;21.70;;;;;;5075226;28;20074;-76
2021/03/23 12:19:37;;;;;;;5.28;2.08;;;14.50;22.30;;;;;;5075166;28;20359;-74
2021/03/23 12:22:03;;;;;;;4.65;2.20;;;14.60;21.40;;;;;;5075171;28;20016;-76
2021/03/23 12:24:29;;;;;;;4.78;2.10;;;14.70;21.50;;;;;;5075129;28;20028;-75
2021/03/23 12:26:55;;;;;;;5.72;1.77;;;14.80;21.30;;;;;;5057180;28;20109;-73
2021/03/23 12:29:21;;;;;;;5.40;2.40;;;14.90;21.60;;;;;;5056711;28;20110;-77
2021/03/23 12:31:48;;;;;;;6.38;2.33;;;14.90;21.10;;;;;;5075193;28;20055;-77
2021/03/23 12:34:14;;;;;;;6.50;2.42;;;14.80;21.10;;;;;;5056936;28;20036;-77
2021/03/23 12:36:42;;;;;;;5.75;2.20;;;14.70;21.40;;;;;;5074787;28;20086;-79
2021/03/23 12:39:09;;;;;;;4.72;2.13;;;14.70;21.20;;;;;;5075719;28;20060;-76
2021/03/23 12:41:37;;;;;;;5.65;2.85;;;14.80;21.70;;;;;;5074957;28;20028;-78
2021/03/23 12:44:04;;;;;;;5.72;2.03;;;15.00;21.70;;;;;;5074936;28;20032;-78
2021/03/23 12:46:31;;;;;;;5.07;2.25;;;15.00;21.80;;;;;;5075246;28;20478;-74
2021/03/23 12:48:58;;;;;;;5.93;1.90;;;15.00;21.50;;;;;;5074861;28;20020;-77
2021/03/23 12:51:34;;;;;;;4.95;2.00;;;15.10;21.20;;;;;;5074656;28;20024;-73
2021/03/23 12:54:01;;;;;;;4.43;1.92;;;15.00;21.20;;;;;;5074433;28;20095;-75
2021/03/23 12:56:27;;;;;;;5.03;1.90;;;15.00;21.00;;;;;;5074482;28;20033;-74
2021/03/23 12:58:53;;;;;;;5.50;1.90;;;14.90;20.60;;;;;;5074422;28;20462;-75
2021/03/23 13:01:20;;;;;;;6.30;2.20;;;14.80;20.80;;;;;;5074523;28;20085;-73
2021/03/23 13:03:46;;;;;;;5.45;2.15;;;14.90;20.80;;;;;;5074131;28;20044;-74
2021/03/23 13:06:14;;;;;;;7.72;2.30;;;15.00;20.90;;;;;;5074156;28;20099;-74
2021/03/23 13:08:42;;;;;;;6.05;1.85;;;15.00;20.60;;;;;;5074155;28;20085;-74
2021/03/23 13:11:18;;;;;;;7.22;2.28;;;15.10;21.30;;;;;;5073924;28;20021;-76
2021/03/23 13:14:00;;;;;;;7.10;2.20;;;15.00;20.60;;;;;;5073811;28;20043;-76
2021/03/23 13:16:27;;;;;;;6.18;2.33;;;15.00;21.40;;;;;;5055798;28;20024;-74
2021/03/23 13:18:53;;;;;;;6.82;2.15;;;14.90;21.30;;;;;;5074133;28;20048;-78